Time;durP1;ratioP1;P1;durP2;ratioP2;P2;SDS_P1;SDS_P2;PMS_P1;PMS_P2;Temp;Humidity;BMP_temperature;BMP_pressure;BME280_temperature;BME280_humidity;BME280_pressure;Samples;Min_cycle;Max_cycle;Signal;HPM_P1;HPM_P2
2021/08/10 00:01:14;;;;;;;16.50;4.82;;;;;;;17.88;75.14;100362.69;4937306;29;20114;-96
2021/08/10 00:03:39;;;;;;;16.10;4.88;;;;;;;17.93;74.96;100362.22;4935916;29;20538;-96
2021/08/10 00:06:05;;;;;;;9.77;4.32;;;;;;;17.91;75.25;100370.38;4935603;29;20437;-96
2021/08/10 00:08:30;;;;;;;9.65;4.35;;;;;;;17.79;75.05;100364.44;4937390;29;20035;-95
2021/08/10 00:10:56;;;;;;;9.40;3.92;;;;;;;17.89;74.04;100368.84;4936365;29;20520;-96
2021/08/10 00:13:23;;;;;;;7.07;3.95;;;;;;;18.02;73.54;100382.56;4937501;29;20039;-96
2021/08/10 00:15:48;;;;;;;7.03;3.88;;;;;;;18.03;72.70;100381.59;4936472;29;20035;-96
2021/08/10 00:18:14;;;;;;;12.85;3.78;;;;;;;17.95;73.01;100374.41;4936370;29;20024;-96
2021/08/10 00:20:39;;;;;;;7.22;3.95;;;;;;;18.08;72.13;100376.66;4936906;29;20109;-96
2021/08/10 00:23:05;;;;;;;12.35;4.03;;;;;;;18.02;72.74;100378.09;4936973;29;20027;-96
2021/08/10 00:25:31;;;;;;;10.70;4.32;;;;;;;18.05;72.17;100376.97;4938626;29;20119;-96
2021/08/10 00:27:58;;;;;;;13.27;4.00;;;;;;;18.08;72.01;100373.16;4939871;29;20506;-96
2021/08/10 00:30:23;;;;;;;11.57;4.75;;;;;;;18.07;72.15;100374.13;4939466;29;20026;-96
2021/08/10 00:32:49;;;;;;;13.90;4.57;;;;;;;18.07;72.40;100377.66;4939767;29;20059;-96
2021/08/10 00:35:15;;;;;;;14.90;5.25;;;;;;;17.94;72.72;100375.38;4942265;29;20028;-96
2021/08/10 00:37:40;;;;;;;12.73;5.15;;;;;;;18.04;72.77;100375.28;4939305;29;20032;-96
2021/08/10 00:40:07;;;;;;;11.30;4.88;;;;;;;17.91;72.44;100382.81;4940255;29;20035;-96
2021/08/10 00:42:33;;;;;;;7.60;3.90;;;;;;;17.87;73.17;100387.59;4939054;29;20027;-96
2021/08/10 00:44:58;;;;;;;9.13;4.30;;;;;;;17.78;72.99;100375.19;4942432;29;20098;-95
2021/08/10 00:47:24;;;;;;;6.63;3.85;;;;;;;17.74;72.65;100379.16;4945455;29;20059;-96
2021/08/10 00:49:49;;;;;;;7.93;4.40;;;;;;;17.62;72.31;100370.56;4944296;29;20356;-96
2021/08/10 00:52:15;;;;;;;10.60;4.25;;;;;;;17.66;72.82;100377.25;4943275;29;20212;-95
2021/08/10 00:54:40;;;;;;;11.23;4.32;;;;;;;17.58;72.53;100374.50;4942323;29;20028;-96
2021/08/10 00:57:07;;;;;;;8.82;4.22;;;;;;;17.37;73.60;100383.56;4943056;29;20074;-96
2021/08/10 00:59:32;;;;;;;10.18;3.78;;;;;;;17.18;73.73;100386.31;4944158;29;20023;-96
2021/08/10 01:01:58;;;;;;;8.60;4.35;;;;;;;17.15;73.46;100389.28;4948102;29;20036;-96
2021/08/10 01:04:23;;;;;;;7.75;4.10;;;;;;;17.35;72.67;100393.50;4945241;29;20035;-96
2021/08/10 01:07:14;;;;;;;16.15;4.75;;;;;;;17.52;72.88;100381.25;4944285;29;20023;-96
2021/08/10 01:10:13;;;;;;;13.98;5.05;;;;;;;17.54;73.00;100379.28;4943776;29;20042;-96
2021/08/10 01:12:54;;;;;;;12.68;4.97;;;;;;;17.56;73.26;100377.31;4950026;29;20039;-96
2021/08/10 01:15:24;;;;;;;12.70;5.35;;;;;;;17.49;73.97;100375.41;4944507;29;20040;-96
2021/08/10 01:18:04;;;;;;;10.98;5.22;;;;;;;17.51;74.02;100376.09;4942103;29;20024;-96
2021/08/10 01:21:03;;;;;;;15.07;5.30;;;;;;;17.61;73.37;100371.53;4945985;29;20099;-96
2021/08/10 01:23:32;;;;;;;8.95;5.18;;;;;;;17.42;74.00;100376.00;4947073;29;20434;-96
2021/08/10 01:26:08;;;;;;;12.95;5.30;;;;;;;17.45;74.57;100381.00;4944057;29;20020;-96
2021/08/10 01:28:53;;;;;;;13.57;4.82;;;;;;;17.55;73.64;100382.75;4943255;29;20027;-96
2021/08/10 01:31:23;;;;;;;12.00;5.25;;;;;;;17.40;73.90;100387.75;4944732;29;20386;-96
2021/08/10 01:33:51;;;;;;;10.73;5.00;;;;;;;17.47;74.28;100382.69;4961428;29;20035;-96
2021/08/10 01:36:20;;;;;;;13.70;5.18;;;;;;;17.44;74.06;100379.34;4944688;29;20071;-96
2021/08/10 01:38:50;;;;;;;9.32;5.03;;;;;;;17.48;74.09;100371.09;4944236;29;20083;-96
2021/08/10 01:41:18;;;;;;;15.55;5.70;;;;;;;17.47;73.77;100382.69;4942738;29;20024;-96
2021/08/10 01:43:45;;;;;;;13.52;5.38;;;;;;;17.36;74.07;100379.25;4944448;29;20031;-96
2021/08/10 01:46:11;;;;;;;8.27;4.88;;;;;;;17.30;73.70;100387.81;4947613;29;20027;-96
2021/08/10 01:48:39;;;;;;;9.77;4.00;;;;;;;17.32;74.12;100385.84;4949256;29;20047;-96
2021/08/10 01:51:05;;;;;;;6.93;4.25;;;;;;;17.23;73.88;100376.13;4943052;29;20478;-94
2021/08/10 01:53:31;;;;;;;12.75;4.82;;;;;;;17.21;73.81;100384.22;4937072;29;20502;-96
2021/08/10 01:55:58;;;;;;;9.45;4.35;;;;;;;17.14;73.74;100383.16;4949473;29;20032;-96
2021/08/10 01:58:26;;;;;;;9.50;4.63;;;;;;;17.17;73.80;100382.00;4948817;29;20027;-96
2021/08/10 02:00:53;;;;;;;10.85;5.25;;;;;;;17.10;73.79;100378.28;4944537;29;20030;-96
2021/08/10 02:03:19;;;;;;;12.45;5.50;;;;;;;17.01;74.02;100375.53;4946121;29;20474;-96
2021/08/10 02:05:46;;;;;;;14.07;5.65;;;;;;;17.11;74.11;100382.59;4953104;29;20024;-96
2021/08/10 02:08:13;;;;;;;15.45;5.38;;;;;;;17.05;74.70;100384.84;4953420;29;20027;-96
2021/08/10 02:10:38;;;;;;;10.48;5.38;;;;;;;16.96;75.23;100385.75;4951777;29;20036;-96
2021/08/10 02:13:04;;;;;;;17.25;5.40;;;;;;;17.00;75.16;100387.13;4946636;29;20099;-96
2021/08/10 02:15:31;;;;;;;10.35;5.72;;;;;;;17.04;75.23;100382.34;4945113;29;20496;-96
2021/08/10 02:17:57;;;;;;;8.27;5.68;;;;;;;17.03;75.21;100383.34;4947324;29;20033;-96
2021/08/10 02:20:22;;;;;;;14.02;5.10;;;;;;;17.05;74.75;100382.19;4951124;29;20115;-96
2021/08/10 02:22:48;;;;;;;12.00;5.53;;;;;;;17.13;74.90;100386.78;4953002;29;20054;-96
2021/08/10 02:25:19;;;;;;;8.18;5.45;;;;;;;17.17;75.05;100384.66;4949911;29;20038;-96
2021/08/10 02:28:06;;;;;;;10.52;5.93;;;;;;;17.29;74.42;100375.53;4947169;29;20390;-96
2021/08/10 02:30:36;;;;;;;13.35;5.20;;;;;;;17.12;74.92;100371.00;4944773;29;20023;-96
2021/08/10 02:33:08;;;;;;;8.95;5.30;;;;;;;17.20;74.34;100379.06;4944765;29;20027;-96
2021/08/10 02:35:35;;;;;;;10.13;5.63;;;;;;;16.99;75.12;100372.19;4945003;29;20028;-96
2021/08/10 02:38:13;;;;;;;11.48;5.40;;;;;;;17.23;74.15;100381.41;4944017;29;20106;-96
2021/08/10 02:40:41;;;;;;;15.00;6.20;;;;;;;16.95;75.31;100377.94;4943764;29;20020;-96
2021/08/10 02:43:07;;;;;;;13.85;5.75;;;;;;;16.97;75.62;100382.09;4943064;29;20031;-96
2021/08/10 02:45:35;;;;;;;14.45;6.10;;;;;;;17.14;74.90;100393.78;4945863;29;20475;-96
2021/08/10 02:48:01;;;;;;;14.05;6.43;;;;;;;17.10;74.64;100386.22;4945494;29;20063;-95
2021/08/10 02:50:28;;;;;;;14.10;6.03;;;;;;;17.10;74.62;100378.28;4963356;29;20036;-96
2021/08/10 02:52:54;;;;;;;10.40;5.47;;;;;;;17.14;74.43;100384.94;4949360;29;20282;-96
2021/08/10 02:55:21;;;;;;;19.17;7.00;;;;;;;17.12;74.82;100389.56;4949525;29;20039;-96
2021/08/10 02:58:06;;;;;;;11.93;5.97;;;;;;;17.25;74.84;100395.38;4947966;29;20039;-96
2021/08/10 03:00:45;;;;;;;13.45;5.55;;;;;;;17.28;74.47;100395.09;4946069;29;20027;-96
2021/08/10 03:03:16;;;;;;;14.05;6.22;;;;;;;17.21;74.96;100399.31;4943882;29;20031;-96
2021/08/10 03:05:43;;;;;;;16.88;6.45;;;;;;;17.09;75.70;100400.50;4944754;29;20024;-96
2021/08/10 03:08:20;;;;;;;21.08;6.47;;;;;;;16.94;76.37;100398.31;4940450;29;20036;-96
2021/08/10 03:10:48;;;;;;;10.43;5.88;;;;;;;16.93;76.84;100398.47;4942248;29;20032;-96
2021/08/10 03:13:15;;;;;;;8.82;5.95;;;;;;;16.88;76.99;100390.09;4946912;29;20091;-96
2021/08/10 03:15:41;;;;;;;13.82;5.90;;;;;;;16.84;77.02;100390.41;4950487;29;20024;-96
2021/08/10 03:18:10;;;;;;;12.52;5.10;;;;;;;16.97;76.54;100394.53;4947107;29;20434;-96
2021/08/10 03:20:39;;;;;;;13.55;7.55;;;;;;;16.97;76.77;100391.88;4943611;29;20059;-96
2021/08/10 03:23:06;;;;;;;9.90;5.63;;;;;;;16.91;76.59;100403.91;4943550;29;20039;-96
2021/08/10 03:25:32;;;;;;;12.45;5.80;;;;;;;17.01;76.21;100396.75;4960571;28;20103;-96
2021/08/10 03:28:00;;;;;;;10.20;5.47;;;;;;;16.99;76.30;100396.06;4944355;29;20032;-96
2021/08/10 03:30:26;;;;;;;10.90;5.80;;;;;;;17.16;75.78;100393.59;4941678;29;20024;-96
2021/08/10 03:32:53;;;;;;;17.95;6.57;;;;;;;17.28;74.54;100381.81;4940978;29;20031;-96
2021/08/10 03:35:19;;;;;;;11.90;6.22;;;;;;;17.31;74.45;100394.78;4939913;29;20035;-96
2021/08/10 03:37:45;;;;;;;11.27;5.35;;;;;;;17.31;74.13;100396.59;4935477;29;20035;-96
2021/08/10 03:40:12;;;;;;;17.33;5.82;;;;;;;17.25;74.04;100390.06;4935071;29;20035;-96
2021/08/10 03:42:38;;;;;;;15.32;5.63;;;;;;;17.23;73.63;100387.56;4935273;29;20038;-96
2021/08/10 03:45:05;;;;;;;10.13;5.28;;;;;;;17.25;74.13;100396.19;4934728;29;20227;-96
2021/08/10 03:47:31;;;;;;;12.68;5.38;;;;;;;17.22;74.13;100398.34;4934691;29;20418;-96
2021/08/10 03:49:58;;;;;;;11.20;5.30;;;;;;;17.18;73.88;100394.28;4934731;29;20087;-96
2021/08/10 03:52:25;;;;;;;11.73;5.13;;;;;;;17.20;74.05;100393.19;4934882;29;20027;-96
2021/08/10 03:54:50;;;;;;;6.80;4.38;;;;;;;17.14;73.98;100395.56;4934627;29;20055;-96
2021/08/10 03:57:18;;;;;;;9.65;5.35;;;;;;;17.15;73.55;100389.28;4935561;29;20062;-96
2021/08/10 03:59:51;;;;;;;9.75;5.20;;;;;;;17.12;74.08;100395.72;4934699;29;20051;-96
2021/08/10 04:02:17;;;;;;;13.13;4.70;;;;;;;17.03;74.02;100397.44;4934402;29;20024;-96
2021/08/10 04:04:44;;;;;;;11.38;5.00;;;;;;;17.04;73.36;100399.13;4934659;29;20119;-96
2021/08/10 04:07:10;;;;;;;9.32;4.95;;;;;;;17.00;73.94;100404.84;4934630;29;20515;-96
2021/08/10 04:09:39;;;;;;;8.95;5.28;;;;;;;17.08;73.26;100404.97;4935017;29;20059;-96
2021/08/10 04:12:06;;;;;;;6.45;4.53;;;;;;;16.93;74.00;100396.63;4934771;29;20032;-96
2021/08/10 04:14:33;;;;;;;13.73;4.97;;;;;;;16.92;73.99;100407.38;4934187;29;20028;-96
2021/08/10 04:17:06;;;;;;;10.35;5.25;;;;;;;16.93;73.06;100404.59;4934767;29;20032;-95
2021/08/10 04:19:34;;;;;;;8.77;5.07;;;;;;;16.78;73.81;100406.00;4935469;29;20552;-96
2021/08/10 04:22:00;;;;;;;13.40;4.90;;;;;;;16.75;73.30;100401.00;4938484;29;20131;-96
2021/08/10 04:24:26;;;;;;;8.07;4.38;;;;;;;16.74;73.67;100407.28;4938092;29;20024;-96
2021/08/10 04:26:52;;;;;;;7.60;4.35;;;;;;;16.70;73.73;100400.59;4938003;29;20063;-96
2021/08/10 04:29:17;;;;;;;9.50;5.07;;;;;;;16.66;73.74;100403.53;4939180;29;20067;-96
2021/08/10 04:31:43;;;;;;;8.45;4.25;;;;;;;16.59;73.72;100388.38;4938037;29;20019;-96
2021/08/10 04:34:08;;;;;;;11.90;4.68;;;;;;;16.65;73.89;100396.56;4938381;29;20030;-96
2021/08/10 04:36:34;;;;;;;7.05;4.10;;;;;;;16.61;73.12;100400.47;4938210;29;20482;-96
2021/08/10 04:39:00;;;;;;;6.60;4.45;;;;;;;16.60;73.64;100393.50;4937939;29;20474;-96
2021/08/10 04:41:26;;;;;;;8.07;4.28;;;;;;;16.59;73.95;100398.97;4937929;29;20033;-96
2021/08/10 04:43:52;;;;;;;8.23;4.43;;;;;;;16.59;73.73;100399.78;4938038;29;20042;-96
2021/08/10 04:46:18;;;;;;;7.95;4.60;;;;;;;16.58;73.63;100395.44;4937756;29;20050;-96
2021/08/10 04:48:44;;;;;;;9.30;4.70;;;;;;;16.54;74.06;100390.59;4938485;29;20441;-95
2021/08/10 04:51:09;;;;;;;10.15;4.63;;;;;;;16.54;73.71;100401.19;4938676;29;20126;-96
2021/08/10 04:53:35;;;;;;;10.90;4.63;;;;;;;16.48;73.82;100399.94;4939092;29;20406;-96
2021/08/10 04:56:00;;;;;;;8.50;5.03;;;;;;;16.48;73.70;100407.91;4939787;29;20023;-96
2021/08/10 04:58:25;;;;;;;7.05;4.75;;;;;;;16.49;74.13;100404.28;4940672;29;20122;-96
2021/08/10 05:00:51;;;;;;;8.07;4.50;;;;;;;16.53;74.07;100416.28;4940403;29;20086;-96
2021/08/10 05:03:17;;;;;;;10.77;4.80;;;;;;;16.44;73.71;100417.13;4941596;29;20030;-96
2021/08/10 05:05:43;;;;;;;7.85;3.83;;;;;;;16.42;73.21;100430.50;4941086;29;20460;-96
2021/08/10 05:08:09;;;;;;;8.40;4.72;;;;;;;16.36;73.89;100417.00;4942508;29;20039;-96
2021/08/10 05:10:34;;;;;;;7.30;4.53;;;;;;;16.39;73.39;100414.03;4942029;29;20035;-96
2021/08/10 05:12:59;;;;;;;7.20;3.88;;;;;;;16.37;73.25;100426.59;4943195;29;20035;-96
2021/08/10 05:15:25;;;;;;;7.30;4.35;;;;;;;16.45;73.54;100424.09;4941787;29;20055;-96
2021/08/10 05:17:50;;;;;;;6.35;4.63;;;;;;;16.49;73.56;100420.19;4941149;29;20035;-96
2021/08/10 05:20:16;;;;;;;7.97;4.60;;;;;;;16.55;73.75;100427.56;4941916;29;20078;-96
2021/08/10 05:22:41;;;;;;;7.05;4.50;;;;;;;16.64;74.40;100423.22;4942457;29;20028;-96
2021/08/10 05:25:10;;;;;;;4.45;3.88;;;;;;;16.83;74.25;100427.66;4942091;29;20027;-96
2021/08/10 05:27:36;;;;;;;9.40;4.70;;;;;;;16.78;74.27;100433.34;4942856;29;20039;-96
2021/08/10 05:30:02;;;;;;;6.38;5.00;;;;;;;16.87;74.10;100434.34;4941321;29;20028;-96
2021/08/10 05:32:28;;;;;;;9.00;5.18;;;;;;;16.94;74.68;100424.84;4941087;29;20035;-95
2021/08/10 05:34:53;;;;;;;12.93;5.57;;;;;;;17.10;74.33;100433.97;4941165;29;20482;-96
2021/08/10 05:37:18;;;;;;;6.38;4.72;;;;;;;17.19;74.19;100433.13;4943908;29;20027;-96
2021/08/10 05:39:44;;;;;;;12.40;5.70;;;;;;;17.31;73.93;100434.59;4944045;29;20031;-96
2021/08/10 05:42:09;;;;;;;6.05;4.70;;;;;;;17.37;74.31;100431.34;4941975;29;20282;-96
2021/08/10 05:44:34;;;;;;;8.15;5.18;;;;;;;17.47;74.13;100439.25;4944941;29;20031;-96
2021/08/10 05:47:00;;;;;;;12.13;5.45;;;;;;;17.56;73.60;100440.19;4944267;29;20043;-96
2021/08/10 05:49:25;;;;;;;9.23;5.47;;;;;;;17.66;73.39;100437.50;4942332;29;20082;-96
2021/08/10 05:51:51;;;;;;;9.80;5.00;;;;;;;17.72;73.33;100450.16;4941026;29;20528;-96
2021/08/10 05:54:16;;;;;;;6.28;4.55;;;;;;;17.79;72.10;100444.09;4942536;29;20023;-96
2021/08/10 05:56:42;;;;;;;7.20;4.88;;;;;;;17.94;73.00;100444.44;4943889;29;20047;-96
2021/08/10 05:59:09;;;;;;;9.82;4.85;;;;;;;17.89;72.17;100440.56;4943039;29;20119;-96
2021/08/10 06:01:36;;;;;;;8.77;4.70;;;;;;;17.91;73.06;100431.47;4943891;29;20565;-96
2021/08/10 06:04:02;;;;;;;9.80;5.00;;;;;;;17.99;72.49;100447.47;4943205;29;20035;-96
2021/08/10 06:06:28;;;;;;;9.27;4.45;;;;;;;17.93;72.44;100441.91;4941618;29;20055;-96
2021/08/10 06:08:53;;;;;;;5.80;4.85;;;;;;;18.04;72.49;100450.50;4939443;29;20119;-95
2021/08/10 06:11:19;;;;;;;6.55;4.32;;;;;;;18.04;72.08;100455.81;4936590;29;20028;-95
2021/08/10 06:13:44;;;;;;;9.85;4.85;;;;;;;18.08;72.73;100455.53;4936027;29;20030;-96
2021/08/10 06:16:10;;;;;;;8.68;4.43;;;;;;;18.19;72.37;100457.97;4936259;29;20024;-96
2021/08/10 06:18:35;;;;;;;6.93;4.22;;;;;;;18.35;72.84;100455.44;4936421;29;20357;-96
2021/08/10 06:21:01;;;;;;;10.40;4.65;;;;;;;18.34;73.13;100450.28;4952039;29;20171;-96
2021/08/10 06:23:26;;;;;;;7.05;4.35;;;;;;;18.34;73.48;100451.09;4935949;29;20023;-95
2021/08/10 06:25:51;;;;;;;10.27;4.50;;;;;;;18.43;73.25;100460.81;4935979;29;20034;-96
2021/08/10 06:28:17;;;;;;;10.20;4.20;;;;;;;18.72;71.98;100442.91;4935807;29;20495;-96
2021/08/10 06:30:42;;;;;;;7.80;4.43;;;;;;;18.76;71.68;100441.59;4936239;29;20028;-96
2021/08/10 06:33:07;;;;;;;8.70;4.10;;;;;;;18.71;71.58;100460.69;4936178;29;20114;-95
2021/08/10 06:35:33;;;;;;;5.45;3.97;;;;;;;18.86;71.31;100466.31;4939305;29;20086;-95
2021/08/10 06:37:58;;;;;;;9.27;4.07;;;;;;;18.92;71.35;100463.03;4936028;29;20035;-95
2021/08/10 06:40:24;;;;;;;6.70;4.40;;;;;;;19.58;71.79;100460.66;4935122;29;20028;-96
2021/08/10 06:42:49;;;;;;;7.82;4.63;;;;;;;20.61;67.28;100468.34;4934107;29;20019;-95
2021/08/10 06:45:16;;;;;;;6.18;3.42;;;;;;;20.76;66.94;100465.81;4935241;29;20099;-96
2021/08/10 06:47:42;;;;;;;5.97;3.55;;;;;;;20.62;66.73;100462.00;4935293;29;20028;-96
2021/08/10 06:50:08;;;;;;;6.03;3.00;;;;;;;21.07;66.06;100462.41;4935815;29;20089;-96
2021/08/10 06:52:33;;;;;;;10.75;4.00;;;;;;;22.10;64.17;100453.41;4935495;29;20438;-96
2021/08/10 06:54:59;;;;;;;3.75;2.58;;;;;;;21.81;63.20;100464.81;4935360;29;20031;-95
2021/08/10 06:57:24;;;;;;;5.75;2.60;;;;;;;21.59;62.35;100461.91;4935394;29;20035;-95
2021/08/10 06:59:49;;;;;;;4.13;2.70;;;;;;;22.78;61.88;100467.72;4936001;29;20474;-95
2021/08/10 07:02:15;;;;;;;5.93;2.80;;;;;;;23.69;59.43;100457.63;4935321;29;20027;-96
2021/08/10 07:04:40;;;;;;;9.02;2.45;;;;;;;24.10;57.32;100462.44;4935356;29;20468;-96
2021/08/10 07:07:06;;;;;;;6.63;2.63;;;;;;;25.02;54.70;100468.75;4934917;29;20041;-96
2021/08/10 07:09:31;;;;;;;7.82;2.47;;;;;;;25.59;54.35;100472.16;4934835;29;20023;-96
2021/08/10 07:11:57;;;;;;;7.93;2.03;;;;;;;26.40;54.95;100474.00;4934836;29;20115;-96
2021/08/10 07:14:22;;;;;;;3.75;2.13;;;;;;;26.83;49.46;100468.19;4934626;29;20027;-96
2021/08/10 07:16:48;;;;;;;8.52;2.88;;;;;;;27.37;50.00;100470.78;4935304;29;20086;-96
2021/08/10 07:19:14;;;;;;;7.47;2.10;;;;;;;27.55;46.24;100470.94;4935507;29;20123;-96
2021/08/10 07:21:41;;;;;;;4.50;1.52;;;;;;;28.31;46.91;100471.09;4936269;29;20028;-96
2021/08/10 07:24:07;;;;;;;3.47;1.98;;;;;;;27.98;43.65;100475.72;4935676;29;20032;-96
2021/08/10 07:26:32;;;;;;;6.28;2.15;;;;;;;28.47;46.11;100467.84;4935380;29;20050;-96
2021/08/10 07:28:59;;;;;;;4.20;1.55;;;;;;;29.46;44.87;100466.03;4937271;29;20099;-96
2021/08/10 07:31:24;;;;;;;4.70;1.60;;;;;;;29.56;42.26;100470.91;4937909;29;20118;-96
2021/08/10 07:33:50;;;;;;;5.18;1.80;;;;;;;29.07;42.14;100478.13;4941196;29;20094;-96
2021/08/10 07:36:16;;;;;;;5.32;1.50;;;;;;;28.82;41.63;100481.69;4940956;29;20081;-96
2021/08/10 07:38:41;;;;;;;4.03;1.80;;;;;;;29.26;42.62;100493.31;4939638;29;20031;-96
2021/08/10 07:41:07;;;;;;;7.43;1.80;;;;;;;29.23;42.42;100493.78;4943456;29;20024;-96
2021/08/10 07:43:32;;;;;;;7.32;1.45;;;;;;;28.59;43.49;100481.50;4937304;29;20110;-96
2021/08/10 07:45:58;;;;;;;4.82;1.25;;;;;;;28.32;44.17;100487.09;4935886;29;20028;-96
2021/08/10 07:48:23;;;;;;;2.67;1.48;;;;;;;28.17;43.36;100483.88;4935773;29;20038;-96
2021/08/10 07:50:48;;;;;;;2.65;1.40;;;;;;;27.24;45.26;100487.84;4934748;29;20115;-96
2021/08/10 07:53:15;;;;;;;4.50;1.40;;;;;;;26.89;46.92;100494.28;4934378;29;20067;-96
2021/08/10 07:55:41;;;;;;;6.50;1.60;;;;;;;26.08;48.30;100484.50;4933948;29;20091;-96
2021/08/10 07:58:07;;;;;;;6.10;1.35;;;;;;;26.38;49.52;100497.59;4934228;29;20028;-96
2021/08/10 08:00:33;;;;;;;6.25;1.70;;;;;;;28.08;45.18;100489.53;4934069;29;20032;-96
2021/08/10 08:02:58;;;;;;;4.18;1.77;;;;;;;28.71;44.36;100495.91;4934425;29;20070;-96
2021/08/10 08:05:24;;;;;;;5.72;1.60;;;;;;;27.37;46.31;100495.03;4934189;29;20078;-96
2021/08/10 08:07:49;;;;;;;3.28;1.52;;;;;;;28.03;45.09;100499.34;4934030;29;20024;-96
2021/08/10 08:10:14;;;;;;;3.03;1.35;;;;;;;28.94;43.89;100494.47;4949915;29;20119;-96
2021/08/10 08:12:40;;;;;;;3.03;1.33;;;;;;;29.46;43.46;100497.66;4933724;29;20032;-96
2021/08/10 08:15:06;;;;;;;4.22;1.67;;;;;;;30.10;41.12;100497.25;4934795;29;20482;-96
2021/08/10 08:17:32;;;;;;;3.25;1.20;;;;;;;30.81;40.34;100498.22;4949757;29;20031;-96
2021/08/10 08:19:57;;;;;;;5.50;1.40;;;;;;;31.38;39.28;100495.69;4933654;29;20020;-96
2021/08/10 08:22:23;;;;;;;6.03;1.67;;;;;;;30.77;40.36;100503.28;4933702;29;20418;-96
2021/08/10 08:24:48;;;;;;;3.40;1.13;;;;;;;29.74;41.56;100499.00;4933435;29;20024;-96
2021/08/10 08:27:13;;;;;;;4.20;1.48;;;;;;;29.80;41.83;100503.50;4933235;29;20039;-96
2021/08/10 08:29:39;;;;;;;3.70;1.23;;;;;;;29.07;42.03;100503.28;4933396;29;20031;-96
2021/08/10 08:32:06;;;;;;;3.78;1.23;;;;;;;28.45;43.13;100508.56;4934273;29;20048;-96
2021/08/10 08:34:31;;;;;;;2.92;1.25;;;;;;;27.74;44.68;100503.41;4933094;29;20087;-95
2021/08/10 08:36:57;;;;;;;2.33;1.20;;;;;;;27.65;46.20;100513.63;4949149;29;20024;-96
2021/08/10 08:39:22;;;;;;;3.58;1.25;;;;;;;28.51;46.22;100506.09;4933296;29;20031;-95
2021/08/10 08:41:48;;;;;;;3.63;1.40;;;;;;;27.91;46.28;100510.00;4934550;29;20492;-95
2021/08/10 08:44:17;;;;;;;6.47;1.70;;;;;;;28.13;45.70;100512.34;4934267;29;20027;-95
2021/08/10 08:46:44;;;;;;;4.97;1.23;;;;;;;28.41;45.74;100506.53;4934284;29;20524;-95
2021/08/10 08:49:11;;;;;;;3.65;1.60;;;;;;;29.68;43.29;100500.72;4934411;29;20046;-96
2021/08/10 08:51:38;;;;;;;5.80;2.45;;;;;;;29.70;43.37;100498.63;4934305;29;20024;-95
2021/08/10 08:54:04;;;;;;;6.20;1.30;;;;;;;29.23;43.07;100501.88;4934283;29;20039;-94
2021/08/10 08:56:29;;;;;;;4.07;1.40;;;;;;;28.88;45.66;100507.00;4933162;29;20027;-95
2021/08/10 08:58:55;;;;;;;8.40;1.40;;;;;;;28.46;44.00;100504.03;4934008;29;20019;-94
2021/08/10 09:01:21;;;;;;;6.60;1.63;;;;;;;28.62;45.53;100513.47;4933171;29;20024;-95
2021/08/10 09:03:47;;;;;;;7.40;1.60;;;;;;;28.67;44.44;100508.22;4932779;29;20031;-94
2021/08/10 09:06:12;;;;;;;4.25;1.20;;;;;;;30.15;43.16;100517.16;4935824;29;20554;-94
2021/08/10 09:08:42;;;;;;;6.60;1.70;;;;;;;29.76;41.24;100507.72;4937605;29;20474;-94
2021/08/10 09:11:14;;;;;;;4.95;1.50;;;;;;;29.85;42.88;100514.47;4937875;29;20028;-95
2021/08/10 09:14:03;;;;;;;6.05;1.63;;;;;;;29.10;43.47;100520.09;4937359;29;20038;-95
2021/08/10 09:16:29;;;;;;;3.97;1.63;;;;;;;28.65;44.37;100519.28;4937447;29;20083;-94
2021/08/10 09:18:55;;;;;;;4.18;1.40;;;;;;;29.83;43.07;100519.28;4937327;29;20051;-95
2021/08/10 09:21:22;;;;;;;3.40;1.13;;;;;;;29.66;41.89;100519.03;4937229;29;20032;-95
2021/08/10 09:23:48;;;;;;;7.47;1.80;;;;;;;29.49;43.15;100518.84;4937167;29;20027;-94
2021/08/10 09:26:22;;;;;;;4.13;1.60;;;;;;;29.53;42.93;100522.75;4937103;29;20078;-94
2021/08/10 09:28:49;;;;;;;4.38;1.48;;;;;;;29.01;44.46;100516.84;4935847;29;20029;-94
2021/08/10 09:31:39;;;;;;;9.18;1.50;;;;;;;30.90;41.44;100518.50;4937026;29;20558;-94
2021/08/10 09:34:27;;;;;;;5.65;1.35;;;;;;;31.82;39.14;100512.31;4936813;29;20054;-94
2021/08/10 09:36:53;;;;;;;7.28;2.03;;;;;;;32.87;37.95;100505.69;4937051;29;20123;-94
2021/08/10 09:39:35;;;;;;;4.90;1.23;;;;;;;34.19;37.17;100513.03;4937229;29;20056;-95
2021/08/10 09:42:05;;;;;;;5.72;1.45;;;;;;;33.01;36.67;100509.69;4940085;29;20027;-94
2021/08/10 09:44:32;;;;;;;5.53;1.77;;;;;;;32.37;37.25;100513.59;4938453;29;20038;-94
2021/08/10 09:46:57;;;;;;;1.98;1.00;;;;;;;32.27;37.49;100509.84;4937145;29;20067;-94
2021/08/10 09:49:23;;;;;;;2.75;1.10;;;;;;;31.85;38.22;100519.13;4936786;29;20027;-94
2021/08/10 09:51:51;;;;;;;3.33;1.00;;;;;;;31.51;38.53;100521.72;4935944;29;20431;-94
2021/08/10 09:54:18;;;;;;;3.50;1.38;;;;;;;30.86;39.89;100521.88;4936937;29;20395;-94
2021/08/10 09:56:55;;;;;;;5.05;1.20;;;;;;;30.24;40.47;100523.91;4937019;29;20031;-93
2021/08/10 09:59:23;;;;;;;4.25;1.75;;;;;;;29.27;41.82;100522.00;4938464;29;20059;-93
2021/08/10 10:02:01;;;;;;;4.35;1.65;;;;;;;29.08;43.31;100520.31;4937865;29;20031;-92
2021/08/10 10:04:30;;;;;;;3.92;1.33;;;;;;;29.48;43.88;100517.19;4938805;29;20039;-93
2021/08/10 10:06:58;;;;;;;4.72;1.55;;;;;;;29.36;42.14;100516.31;4938319;29;20028;-93
2021/08/10 10:09:26;;;;;;;4.22;1.50;;;;;;;28.56;44.18;100511.66;4937254;29;20031;-93
2021/08/10 10:11:54;;;;;;;4.50;1.63;;;;;;;28.54;44.11;100517.28;4937431;29;20020;-93
2021/08/10 10:14:24;;;;;;;3.72;1.90;;;;;;;28.29;44.68;100520.75;4938016;29;20024;-93
2021/08/10 10:16:51;;;;;;;5.00;1.60;;;;;;;27.31;45.90;100523.66;4937927;29;20024;-93
2021/08/10 10:19:18;;;;;;;5.35;1.92;;;;;;;27.56;45.26;100522.97;4939677;29;20035;-93
2021/08/10 10:21:48;;;;;;;8.43;2.03;;;;;;;28.79;44.99;100514.56;4939828;29;20035;-93
2021/08/10 10:24:14;;;;;;;4.10;2.00;;;;;;;29.70;41.69;100524.84;4937746;29;20034;-93
2021/08/10 10:26:46;;;;;;;6.85;1.58;;;;;;;30.90;39.55;100521.19;4936656;29;20036;-93
2021/08/10 10:29:14;;;;;;;4.07;1.58;;;;;;;31.09;39.51;100515.66;4934795;29;20079;-94
2021/08/10 10:31:41;;;;;;;5.78;1.95;;;;;;;31.91;38.66;100512.75;4935904;29;20110;-93
2021/08/10 10:34:07;;;;;;;3.13;1.27;;;;;;;31.41;40.03;100516.06;4935769;29;20020;-93
2021/08/10 10:36:34;;;;;;;4.75;1.38;;;;;;;31.98;38.83;100518.84;4935885;29;20027;-93
2021/08/10 10:39:01;;;;;;;5.10;1.55;;;;;;;33.02;35.80;100522.22;4938189;29;20027;-93
2021/08/10 10:41:32;;;;;;;6.50;1.38;;;;;;;33.93;35.74;100516.28;4937113;29;20024;-91
2021/08/10 10:43:58;;;;;;;8.25;1.40;;;;;;;33.84;34.36;100517.00;4936309;29;20030;-92
2021/08/10 10:46:25;;;;;;;3.08;1.02;;;;;;;34.41;33.98;100516.47;4935882;29;20032;-91
2021/08/10 10:48:50;;;;;;;4.82;1.35;;;;;;;34.30;33.69;100512.84;4936254;29;20031;-91
2021/08/10 10:51:24;;;;;;;4.60;1.60;;;;;;;33.33;34.75;100517.19;4936613;29;20035;-92
2021/08/10 10:53:50;;;;;;;4.22;1.40;;;;;;;33.84;34.45;100522.44;4935681;29;20043;-92
2021/08/10 10:56:25;;;;;;;4.10;1.60;;;;;;;32.47;35.49;100529.22;4935761;29;20032;-91
2021/08/10 10:58:50;;;;;;;3.92;1.40;;;;;;;31.38;37.15;100530.94;4935534;29;20027;-91
2021/08/10 11:01:31;;;;;;;4.78;1.50;;;;;;;31.15;38.73;100531.81;4935481;29;20035;-91
2021/08/10 11:04:06;;;;;;;8.65;2.00;;;;;;;30.29;40.05;100531.31;4935455;29;20126;-91
2021/08/10 11:06:39;;;;;;;3.95;1.52;;;;;;;29.72;41.33;100533.56;4937214;29;20031;-92
2021/08/10 11:09:05;;;;;;;5.28;2.15;;;;;;;29.39;42.98;100532.09;4935907;29;20082;-91
2021/08/10 11:11:50;;;;;;;5.88;1.92;;;;;;;29.16;42.26;100535.44;4938212;29;20031;-91
2021/08/10 11:14:50;;;;;;;5.65;2.20;;;;;;;28.49;43.86;100533.28;4936235;29;20043;-93
2021/08/10 11:17:17;;;;;;;7.28;2.15;;;;;;;27.95;45.23;100532.78;4930568;29;20557;-93
2021/08/10 11:19:44;;;;;;;5.90;2.13;;;;;;;27.70;45.32;100538.88;4936123;29;20046;-92
2021/08/10 11:22:15;;;;;;;3.88;1.95;;;;;;;27.90;45.46;100543.41;4936849;29;20124;-93
2021/08/10 11:24:50;;;;;;;6.40;2.05;;;;;;;28.05;45.82;100546.66;4936786;29;20100;-93